Saturday, August 18, 2018, 3:17 AM EDT
Back to Local

KEWB, New Bedford Regional Airport

Location: New Bedford, MA, United States Lat: 41.683
Local Time: 3:17 AM EDT ( 7:17 GMT) Lon: -70.967
Time Zone: US/Eastern Elev: 78 ft

Show me the last for .
Show Decoded

2018-08-18 02:53 METAR KEWB 180653Z AUTO 23007KT 10SM CLR 25/24 A2987 RMK AO2 SLP114 T02500239 =
2018-08-18 02:29 METAR KEWB 180629Z AUTO 22011KT 10SM SCT012 25/24 A2988 RMK AO2 T02500244 =
2018-08-18 01:53 METAR KEWB 180553Z AUTO 22009KT 10SM OVC012 26/25 A2989 RMK AO2 SLP121 T02560250
                 10256 20250 58016 =
2018-08-18 01:31 METAR KEWB 180531Z AUTO 21010KT 10SM OVC014 26/25 A2990 RMK AO2 T02560250 =
2018-08-18 01:12 METAR KEWB 180512Z AUTO 22009KT 10SM BKN015 BKN110 26/25 A2991 RMK AO2 T02560250
                 =
2018-08-18 00:53 METAR KEWB 180453Z AUTO 22007KT 10SM FEW012 SCT110 25/24 A2992 RMK AO2 SLP130
                 T02500244 403170189 =
2018-08-17 23:53 METAR KEWB 180353Z AUTO 22007KT 10SM FEW010 SCT100 26/24 A2994 RMK AO2 SLP136
                 T02560244 =
2018-08-17 23:07 METAR KEWB 180307Z AUTO 22010KT 10SM SCT010 25/25 A2994 RMK AO2 T02500250 =
2018-08-17 22:53 METAR KEWB 180253Z AUTO 22010G17KT 10SM BKN010 26/25 A2994 RMK AO2 CIG 008V012
                 SLP138 T02560250 57008 =
2018-08-17 22:50 METAR KEWB 180250Z AUTO 22011KT 10SM BKN010 26/25 A2995 RMK AO2 CIG 008V012 =
2018-08-17 22:37 METAR KEWB 180237Z AUTO 22010G17KT 10SM BKN009 BKN100 26/25 A2995 RMK AO2 CIG
                 008V013 T02560250 =
2018-08-17 22:21 METAR KEWB 180221Z AUTO 22014G18KT 10SM BKN010 25/25 A2995 RMK AO2 CIG 008V013
                 T02500250 =
2018-08-17 21:53 METAR KEWB 180153Z 21009KT 10SM SCT010 BKN100 26/25 A2996 RMK AO2 SLP145
                 T02560250 =
2018-08-17 21:48 METAR KEWB 180148Z 21010KT 10SM SCT010 BKN100 26/25 A2997 RMK AO2 =
2018-08-17 20:53 METAR KEWB 180053Z 21008KT 10SM BKN011 26/25 A2997 RMK AO2 CIG 008V013 SLP149
                 T02560250 =
2018-08-17 20:48 METAR KEWB 180048Z 22008KT 10SM BKN011 26/25 A2997 RMK AO2 =
2018-08-17 19:53 METAR KEWB 172353Z 22007KT 10SM CLR 26/24 A2997 RMK AO2 SLP147 T02560244 10311
                 20256 58003 =
2018-08-17 18:53 METAR KEWB 172253Z 19008KT 10SM CLR 26/23 A2997 RMK AO2 SLP149 T02610233 =
2018-08-17 17:53 METAR KEWB 172153Z 20011KT 10SM CLR 28/24 A2998 RMK AO2 SLP152 T02830239 =
2018-08-17 16:53 METAR KEWB 172053Z 20008KT 10SM CLR 29/23 A2998 RMK AO2 SLP150 T02940233 56017 =
2018-08-17 15:53 METAR KEWB 171953Z 20011KT 10SM CLR 30/23 A2999 RMK AO2 SLP154 T03000233 =
2018-08-17 14:53 METAR KEWB 171853Z 20010KT 10SM CLR 30/23 A3001 RMK AO2 SLP160 T03000233 =
2018-08-17 13:53 METAR KEWB 171753Z 19008KT 10SM CLR 31/23 A3003 RMK AO2 SLP167 T03060233 10317
                 20233 56015 =
2018-08-17 12:53 METAR KEWB 171653Z 13008KT 10SM FEW039 30/24 A3004 RMK AO2 SLP170 T03000244 =
2018-08-17 11:53 METAR KEWB 171553Z 12007KT 10SM CLR 30/24 A3005 RMK AO2 SLP176 T03000239 =
2018-08-17 10:53 METAR KEWB 171453Z 16003KT 10SM CLR 28/23 A3007 RMK AO2 SLP182 T02830228 58002 =
2018-08-17 09:53 METAR KEWB 171353Z 16004KT 10SM CLR 27/21 A3007 RMK AO2 SLP183 T02720211 =
2018-08-17 08:53 METAR KEWB 171253Z 00000KT 10SM CLR 26/19 A3008 RMK AO2 SLP183 T02560194 $ =
2018-08-17 07:53 METAR KEWB 171153Z 00000KT 10SM CLR 23/21 A3008 RMK AO2 SLP184 T02330206 10233
                 20189 50007 $ =
2018-08-17 06:53 METAR KEWB 171053Z 00000KT 7SM CLR 20/20 A3008 RMK AO2 SLP184 T02000200 =
2018-08-17 06:24 METAR KEWB 171024Z AUTO 00000KT 5SM BR CLR 19/19 A3008 RMK AO2 T01940194 =
2018-08-17 06:16 METAR KEWB 171016Z AUTO 00000KT 2SM BR CLR 19/19 A3007 RMK AO2 T01940194 =
2018-08-17 06:12 METAR KEWB 171012Z AUTO 00000KT 3/4SM R05/P6000FT BR CLR 19/19 A3007 RMK AO2
                 T01890189 =
2018-08-17 06:04 METAR KEWB 171004Z AUTO 00000KT 1 1/4SM BR CLR 19/19 A3007 RMK AO2 VIS 1/4V5
                 T01890189 =
2018-08-17 05:53 METAR KEWB 170953Z AUTO 00000KT 7SM R05/5000VP6000FT CLR 19/19 A3007 RMK AO2
                 SLP182 T01940194 =
2018-08-17 04:53 METAR KEWB 170853Z AUTO 00000KT 6SM BR FEW045 20/20 A3006 RMK AO2 SLP177
                 T02000200 58002 =
2018-08-17 04:00 METAR KEWB 170800Z AUTO 00000KT 4SM BR CLR 20/20 A3006 RMK AO2 T02000200 =
2018-08-17 03:53 METAR KEWB 170753Z AUTO 00000KT 2 1/2SM BR CLR 20/20 A3006 RMK AO2 SLP178
                 T02000200 =

Support USWX by starting your Amazon purchase here.